sensor_id;sensor_type;location;lat;lon;timestamp;P1;durP1;ratioP1;P2;durP2;ratioP2
20945;SDS011;10632;51.276;7.116;2023-04-06T00:00:54;9.63;;;2.33;;
20945;SDS011;10632;51.276;7.116;2023-04-06T00:03:22;9.20;;;2.90;;
20945;SDS011;10632;51.276;7.116;2023-04-06T00:05:49;6.80;;;2.00;;
20945;SDS011;10632;51.276;7.116;2023-04-06T00:08:16;8.37;;;2.37;;
20945;SDS011;10632;51.276;7.116;2023-04-06T00:10:43;5.80;;;2.10;;
20945;SDS011;10632;51.276;7.116;2023-04-06T00:13:10;5.40;;;2.20;;
20945;SDS011;10632;51.276;7.116;2023-04-06T00:15:39;7.57;;;2.53;;
20945;SDS011;10632;51.276;7.116;2023-04-06T00:18:08;13.17;;;2.97;;
20945;SDS011;10632;51.276;7.116;2023-04-06T00:20:35;7.90;;;2.80;;
20945;SDS011;10632;51.276;7.116;2023-04-06T00:23:02;7.03;;;2.53;;
20945;SDS011;10632;51.276;7.116;2023-04-06T00:25:29;9.33;;;2.93;;
20945;SDS011;10632;51.276;7.116;2023-04-06T00:27:56;6.23;;;2.20;;
20945;SDS011;10632;51.276;7.116;2023-04-06T00:30:23;9.17;;;2.90;;
20945;SDS011;10632;51.276;7.116;2023-04-06T00:32:50;7.03;;;2.60;;
20945;SDS011;10632;51.276;7.116;2023-04-06T00:35:18;8.13;;;2.60;;
20945;SDS011;10632;51.276;7.116;2023-04-06T00:37:46;7.97;;;3.07;;
20945;SDS011;10632;51.276;7.116;2023-04-06T00:40:14;7.50;;;2.70;;
20945;SDS011;10632;51.276;7.116;2023-04-06T00:42:41;6.50;;;2.13;;
20945;SDS011;10632;51.276;7.116;2023-04-06T00:45:09;8.83;;;2.93;;
20945;SDS011;10632;51.276;7.116;2023-04-06T00:47:36;8.27;;;2.37;;
20945;SDS011;10632;51.276;7.116;2023-04-06T00:50:04;9.57;;;3.07;;
20945;SDS011;10632;51.276;7.116;2023-04-06T00:52:33;8.43;;;3.17;;
20945;SDS011;10632;51.276;7.116;2023-04-06T00:55:00;7.27;;;2.13;;
20945;SDS011;10632;51.276;7.116;2023-04-06T00:57:27;9.13;;;2.77;;
20945;SDS011;10632;51.276;7.116;2023-04-06T00:59:55;5.43;;;2.10;;
20945;SDS011;10632;51.276;7.116;2023-04-06T01:02:22;7.17;;;2.60;;
20945;SDS011;10632;51.276;7.116;2023-04-06T01:04:50;4.73;;;1.90;;
20945;SDS011;10632;51.276;7.116;2023-04-06T01:07:17;7.27;;;2.40;;
20945;SDS011;10632;51.276;7.116;2023-04-06T01:09:46;9.37;;;2.60;;
20945;SDS011;10632;51.276;7.116;2023-04-06T01:12:13;7.40;;;2.60;;
20945;SDS011;10632;51.276;7.116;2023-04-06T01:14:40;5.60;;;2.37;;
20945;SDS011;10632;51.276;7.116;2023-04-06T01:17:07;8.47;;;2.10;;
20945;SDS011;10632;51.276;7.116;2023-04-06T01:19:34;7.00;;;2.50;;
20945;SDS011;10632;51.276;7.116;2023-04-06T01:22:01;6.93;;;2.30;;
20945;SDS011;10632;51.276;7.116;2023-04-06T01:24:29;5.97;;;2.10;;
20945;SDS011;10632;51.276;7.116;2023-04-06T01:26:56;6.37;;;2.17;;
20945;SDS011;10632;51.276;7.116;2023-04-06T01:29:23;4.10;;;1.63;;
20945;SDS011;10632;51.276;7.116;2023-04-06T01:31:50;8.43;;;2.70;;
20945;SDS011;10632;51.276;7.116;2023-04-06T01:34:17;7.20;;;2.50;;
20945;SDS011;10632;51.276;7.116;2023-04-06T01:36:45;7.63;;;2.03;;
20945;SDS011;10632;51.276;7.116;2023-04-06T01:39:12;9.90;;;2.37;;
20945;SDS011;10632;51.276;7.116;2023-04-06T01:41:40;6.70;;;2.03;;
20945;SDS011;10632;51.276;7.116;2023-04-06T01:44:07;6.07;;;2.50;;
20945;SDS011;10632;51.276;7.116;2023-04-06T01:46:34;7.10;;;2.07;;
20945;SDS011;10632;51.276;7.116;2023-04-06T01:49:01;11.20;;;2.87;;
20945;SDS011;10632;51.276;7.116;2023-04-06T01:51:28;6.80;;;2.30;;
20945;SDS011;10632;51.276;7.116;2023-04-06T01:53:56;3.93;;;1.33;;
20945;SDS011;10632;51.276;7.116;2023-04-06T01:56:23;5.83;;;2.00;;
20945;SDS011;10632;51.276;7.116;2023-04-06T01:58:51;7.57;;;1.90;;
20945;SDS011;10632;51.276;7.116;2023-04-06T02:01:18;8.90;;;2.33;;
20945;SDS011;10632;51.276;7.116;2023-04-06T02:03:45;6.77;;;2.27;;
20945;SDS011;10632;51.276;7.116;2023-04-06T02:06:12;5.60;;;1.80;;
20945;SDS011;10632;51.276;7.116;2023-04-06T02:08:40;4.67;;;1.90;;
20945;SDS011;10632;51.276;7.116;2023-04-06T02:11:07;8.87;;;2.30;;
20945;SDS011;10632;51.276;7.116;2023-04-06T02:13:34;4.43;;;2.03;;
20945;SDS011;10632;51.276;7.116;2023-04-06T02:16:03;4.30;;;1.60;;
20945;SDS011;10632;51.276;7.116;2023-04-06T02:18:30;5.80;;;2.13;;
20945;SDS011;10632;51.276;7.116;2023-04-06T02:20:57;4.27;;;1.80;;
20945;SDS011;10632;51.276;7.116;2023-04-06T02:23:24;8.87;;;2.20;;
20945;SDS011;10632;51.276;7.116;2023-04-06T02:25:51;10.40;;;1.90;;
20945;SDS011;10632;51.276;7.116;2023-04-06T02:28:18;5.23;;;1.73;;
20945;SDS011;10632;51.276;7.116;2023-04-06T02:30:45;11.83;;;2.33;;
20945;SDS011;10632;51.276;7.116;2023-04-06T02:33:20;6.67;;;2.10;;
20945;SDS011;10632;51.276;7.116;2023-04-06T02:35:46;6.13;;;2.00;;
20945;SDS011;10632;51.276;7.116;2023-04-06T02:38:13;4.70;;;1.70;;
20945;SDS011;10632;51.276;7.116;2023-04-06T02:40:40;6.67;;;1.50;;
20945;SDS011;10632;51.276;7.116;2023-04-06T02:43:07;10.17;;;5.30;;
20945;SDS011;10632;51.276;7.116;2023-04-06T02:45:34;5.20;;;1.80;;
20945;SDS011;10632;51.276;7.116;2023-04-06T02:48:01;5.77;;;2.07;;
20945;SDS011;10632;51.276;7.116;2023-04-06T02:50:30;4.07;;;1.73;;
20945;SDS011;10632;51.276;7.116;2023-04-06T02:52:57;5.70;;;1.73;;
20945;SDS011;10632;51.276;7.116;2023-04-06T02:55:24;4.60;;;1.30;;
20945;SDS011;10632;51.276;7.116;2023-04-06T02:57:51;3.03;;;1.27;;
20945;SDS011;10632;51.276;7.116;2023-04-06T03:00:18;6.50;;;2.00;;
20945;SDS011;10632;51.276;7.116;2023-04-06T03:02:45;6.93;;;1.93;;
20945;SDS011;10632;51.276;7.116;2023-04-06T03:05:12;5.73;;;1.90;;
20945;SDS011;10632;51.276;7.116;2023-04-06T03:07:41;5.73;;;2.07;;
20945;SDS011;10632;51.276;7.116;2023-04-06T03:10:08;6.17;;;1.83;;
20945;SDS011;10632;51.276;7.116;2023-04-06T03:12:36;4.87;;;1.83;;
20945;SDS011;10632;51.276;7.116;2023-04-06T03:15:03;4.20;;;1.37;;
20945;SDS011;10632;51.276;7.116;2023-04-06T03:17:31;6.97;;;2.40;;
20945;SDS011;10632;51.276;7.116;2023-04-06T03:19:58;7.23;;;1.90;;
20945;SDS011;10632;51.276;7.116;2023-04-06T03:22:25;6.33;;;1.80;;
20945;SDS011;10632;51.276;7.116;2023-04-06T03:24:53;10.50;;;1.97;;
20945;SDS011;10632;51.276;7.116;2023-04-06T03:27:20;5.13;;;1.83;;
20945;SDS011;10632;51.276;7.116;2023-04-06T03:29:47;6.13;;;1.80;;
20945;SDS011;10632;51.276;7.116;2023-04-06T03:32:14;5.63;;;2.03;;
20945;SDS011;10632;51.276;7.116;2023-04-06T03:34:41;7.40;;;2.10;;
20945;SDS011;10632;51.276;7.116;2023-04-06T03:37:08;4.60;;;1.70;;
20945;SDS011;10632;51.276;7.116;2023-04-06T03:39:35;6.30;;;1.87;;
20945;SDS011;10632;51.276;7.116;2023-04-06T03:42:04;6.33;;;1.80;;
20945;SDS011;10632;51.276;7.116;2023-04-06T03:44:31;7.77;;;2.13;;
20945;SDS011;10632;51.276;7.116;2023-04-06T03:46:58;6.60;;;2.03;;
20945;SDS011;10632;51.276;7.116;2023-04-06T03:49:26;3.97;;;1.33;;
20945;SDS011;10632;51.276;7.116;2023-04-06T03:51:56;5.20;;;1.87;;
20945;SDS011;10632;51.276;7.116;2023-04-06T03:54:23;7.37;;;2.10;;
20945;SDS011;10632;51.276;7.116;2023-04-06T03:59:21;4.80;;;1.80;;
20945;SDS011;10632;51.276;7.116;2023-04-06T04:01:48;5.10;;;1.60;;
20945;SDS011;10632;51.276;7.116;2023-04-06T04:04:16;4.87;;;1.67;;
20945;SDS011;10632;51.276;7.116;2023-04-06T04:06:43;5.80;;;1.37;;
20945;SDS011;10632;51.276;7.116;2023-04-06T04:09:10;4.63;;;1.63;;
20945;SDS011;10632;51.276;7.116;2023-04-06T04:11:40;4.03;;;1.53;;
20945;SDS011;10632;51.276;7.116;2023-04-06T04:14:07;4.57;;;1.80;;
20945;SDS011;10632;51.276;7.116;2023-04-06T04:16:35;7.10;;;2.17;;
20945;SDS011;10632;51.276;7.116;2023-04-06T04:19:04;3.87;;;1.90;;
20945;SDS011;10632;51.276;7.116;2023-04-06T04:21:31;3.60;;;1.40;;
20945;SDS011;10632;51.276;7.116;2023-04-06T04:23:58;5.40;;;1.57;;
20945;SDS011;10632;51.276;7.116;2023-04-06T04:26:25;4.73;;;1.67;;
20945;SDS011;10632;51.276;7.116;2023-04-06T04:28:52;7.63;;;3.53;;
20945;SDS011;10632;51.276;7.116;2023-04-06T04:31:19;5.70;;;1.70;;
20945;SDS011;10632;51.276;7.116;2023-04-06T04:33:49;3.93;;;1.77;;
20945;SDS011;10632;51.276;7.116;2023-04-06T04:36:15;3.23;;;1.30;;
20945;SDS011;10632;51.276;7.116;2023-04-06T04:38:42;5.10;;;1.70;;
20945;SDS011;10632;51.276;7.116;2023-04-06T04:41:09;7.30;;;1.70;;
20945;SDS011;10632;51.276;7.116;2023-04-06T04:43:36;5.60;;;1.73;;
20945;SDS011;10632;51.276;7.116;2023-04-06T04:46:03;6.73;;;1.63;;
20945;SDS011;10632;51.276;7.116;2023-04-06T04:48:31;4.27;;;1.60;;
20945;SDS011;10632;51.276;7.116;2023-04-06T04:51:00;6.07;;;2.20;;
20945;SDS011;10632;51.276;7.116;2023-04-06T04:53:27;4.93;;;1.80;;
20945;SDS011;10632;51.276;7.116;2023-04-06T04:55:54;4.43;;;1.40;;
20945;SDS011;10632;51.276;7.116;2023-04-06T04:58:21;4.80;;;1.73;;
20945;SDS011;10632;51.276;7.116;2023-04-06T05:00:48;5.13;;;1.43;;
20945;SDS011;10632;51.276;7.116;2023-04-06T05:03:17;6.50;;;1.90;;
20945;SDS011;10632;51.276;7.116;2023-04-06T05:05:47;4.53;;;1.57;;
20945;SDS011;10632;51.276;7.116;2023-04-06T05:08:15;5.50;;;1.67;;
20945;SDS011;10632;51.276;7.116;2023-04-06T05:10:42;4.37;;;1.60;;
20945;SDS011;10632;51.276;7.116;2023-04-06T05:13:11;7.47;;;1.80;;
20945;SDS011;10632;51.276;7.116;2023-04-06T05:15:38;4.43;;;2.00;;
20945;SDS011;10632;51.276;7.116;2023-04-06T05:18:05;4.50;;;1.70;;
20945;SDS011;10632;51.276;7.116;2023-04-06T05:20:33;4.10;;;1.73;;
20945;SDS011;10632;51.276;7.116;2023-04-06T05:23:00;8.43;;;1.97;;
20945;SDS011;10632;51.276;7.116;2023-04-06T05:25:29;4.20;;;1.50;;
20945;SDS011;10632;51.276;7.116;2023-04-06T05:27:56;4.53;;;1.53;;
20945;SDS011;10632;51.276;7.116;2023-04-06T05:30:23;9.93;;;1.87;;
20945;SDS011;10632;51.276;7.116;2023-04-06T05:32:50;6.23;;;2.07;;
20945;SDS011;10632;51.276;7.116;2023-04-06T05:35:17;7.83;;;1.50;;
20945;SDS011;10632;51.276;7.116;2023-04-06T05:37:45;3.00;;;1.30;;
20945;SDS011;10632;51.276;7.116;2023-04-06T05:40:12;3.60;;;1.67;;
20945;SDS011;10632;51.276;7.116;2023-04-06T05:42:41;4.17;;;1.67;;
20945;SDS011;10632;51.276;7.116;2023-04-06T05:45:09;6.33;;;1.70;;
20945;SDS011;10632;51.276;7.116;2023-04-06T05:47:41;5.00;;;1.80;;
20945;SDS011;10632;51.276;7.116;2023-04-06T05:50:09;4.47;;;1.87;;
20945;SDS011;10632;51.276;7.116;2023-04-06T05:52:36;6.13;;;1.70;;
20945;SDS011;10632;51.276;7.116;2023-04-06T05:55:03;4.43;;;1.97;;
20945;SDS011;10632;51.276;7.116;2023-04-06T05:57:31;8.63;;;1.60;;
20945;SDS011;10632;51.276;7.116;2023-04-06T05:59:59;3.77;;;1.13;;
20945;SDS011;10632;51.276;7.116;2023-04-06T06:02:31;5.03;;;1.80;;
20945;SDS011;10632;51.276;7.116;2023-04-06T06:04:58;4.03;;;1.30;;
20945;SDS011;10632;51.276;7.116;2023-04-06T06:07:25;5.10;;;1.50;;
20945;SDS011;10632;51.276;7.116;2023-04-06T06:09:52;5.30;;;2.00;;
20945;SDS011;10632;51.276;7.116;2023-04-06T06:12:22;7.57;;;1.80;;
20945;SDS011;10632;51.276;7.116;2023-04-06T06:14:49;5.10;;;1.70;;
20945;SDS011;10632;51.276;7.116;2023-04-06T06:17:17;4.70;;;1.53;;
20945;SDS011;10632;51.276;7.116;2023-04-06T06:19:44;7.13;;;1.80;;
20945;SDS011;10632;51.276;7.116;2023-04-06T06:22:11;4.60;;;1.83;;
20945;SDS011;10632;51.276;7.116;2023-04-06T06:24:38;5.77;;;2.07;;
20945;SDS011;10632;51.276;7.116;2023-04-06T06:27:05;9.10;;;2.00;;
20945;SDS011;10632;51.276;7.116;2023-04-06T06:29:34;5.50;;;1.70;;
20945;SDS011;10632;51.276;7.116;2023-04-06T06:32:01;5.60;;;2.00;;
20945;SDS011;10632;51.276;7.116;2023-04-06T06:34:30;5.93;;;2.13;;
20945;SDS011;10632;51.276;7.116;2023-04-06T06:36:57;6.07;;;2.30;;
20945;SDS011;10632;51.276;7.116;2023-04-06T06:39:24;7.13;;;1.70;;
20945;SDS011;10632;51.276;7.116;2023-04-06T06:41:51;4.73;;;1.70;;
20945;SDS011;10632;51.276;7.116;2023-04-06T06:44:19;4.40;;;1.60;;
20945;SDS011;10632;51.276;7.116;2023-04-06T06:46:46;5.73;;;2.03;;
20945;SDS011;10632;51.276;7.116;2023-04-06T06:49:13;6.27;;;1.57;;
20945;SDS011;10632;51.276;7.116;2023-04-06T06:51:42;5.53;;;2.13;;
20945;SDS011;10632;51.276;7.116;2023-04-06T06:54:09;7.43;;;2.03;;
20945;SDS011;10632;51.276;7.116;2023-04-06T06:56:36;6.90;;;2.07;;
20945;SDS011;10632;51.276;7.116;2023-04-06T06:59:03;6.03;;;2.03;;
20945;SDS011;10632;51.276;7.116;2023-04-06T07:01:31;6.97;;;2.30;;
20945;SDS011;10632;51.276;7.116;2023-04-06T07:03:59;7.43;;;2.37;;
20945;SDS011;10632;51.276;7.116;2023-04-06T07:06:26;11.60;;;3.45;;
20945;SDS011;10632;51.276;7.116;2023-04-06T07:08:55;9.80;;;3.72;;
20945;SDS011;10632;51.276;7.116;2023-04-06T07:11:22;7.50;;;2.70;;
20945;SDS011;10632;51.276;7.116;2023-04-06T07:13:49;8.73;;;2.40;;
20945;SDS011;10632;51.276;7.116;2023-04-06T07:16:16;7.15;;;2.67;;
20945;SDS011;10632;51.276;7.116;2023-04-06T07:18:43;10.60;;;3.03;;
20945;SDS011;10632;51.276;7.116;2023-04-06T07:21:11;9.27;;;3.05;;
20945;SDS011;10632;51.276;7.116;2023-04-06T07:23:38;7.50;;;2.13;;
20945;SDS011;10632;51.276;7.116;2023-04-06T07:26:06;6.55;;;2.15;;
20945;SDS011;10632;51.276;7.116;2023-04-06T07:28:33;6.30;;;2.28;;
20945;SDS011;10632;51.276;7.116;2023-04-06T07:31:00;7.65;;;2.38;;
20945;SDS011;10632;51.276;7.116;2023-04-06T07:33:27;6.90;;;2.30;;
20945;SDS011;10632;51.276;7.116;2023-04-06T07:35:55;9.40;;;2.80;;
20945;SDS011;10632;51.276;7.116;2023-04-06T07:38:23;8.15;;;2.60;;
20945;SDS011;10632;51.276;7.116;2023-04-06T07:40:50;7.30;;;2.42;;
20945;SDS011;10632;51.276;7.116;2023-04-06T07:43:18;6.93;;;2.40;;
20945;SDS011;10632;51.276;7.116;2023-04-06T07:45:45;8.00;;;2.35;;
20945;SDS011;10632;51.276;7.116;2023-04-06T07:48:12;8.77;;;2.70;;
20945;SDS011;10632;51.276;7.116;2023-04-06T07:50:40;7.80;;;2.35;;
20945;SDS011;10632;51.276;7.116;2023-04-06T07:53:07;6.80;;;2.60;;
20945;SDS011;10632;51.276;7.116;2023-04-06T07:55:35;8.20;;;1.77;;
20945;SDS011;10632;51.276;7.116;2023-04-06T07:58:05;6.25;;;2.33;;
20945;SDS011;10632;51.276;7.116;2023-04-06T08:00:33;7.60;;;2.50;;
20945;SDS011;10632;51.276;7.116;2023-04-06T08:03:00;10.98;;;2.67;;
20945;SDS011;10632;51.276;7.116;2023-04-06T08:05:27;9.00;;;2.88;;
20945;SDS011;10632;51.276;7.116;2023-04-06T08:07:54;6.93;;;2.58;;
20945;SDS011;10632;51.276;7.116;2023-04-06T08:10:21;8.25;;;3.10;;
20945;SDS011;10632;51.276;7.116;2023-04-06T08:12:48;8.30;;;2.80;;
20945;SDS011;10632;51.276;7.116;2023-04-06T08:15:15;7.63;;;2.65;;
20945;SDS011;10632;51.276;7.116;2023-04-06T08:17:44;10.18;;;3.13;;
20945;SDS011;10632;51.276;7.116;2023-04-06T08:20:11;8.52;;;2.80;;
20945;SDS011;10632;51.276;7.116;2023-04-06T08:22:38;10.02;;;3.08;;
20945;SDS011;10632;51.276;7.116;2023-04-06T08:25:05;7.93;;;3.03;;
20945;SDS011;10632;51.276;7.116;2023-04-06T08:27:32;10.45;;;2.67;;
20945;SDS011;10632;51.276;7.116;2023-04-06T08:29:59;11.77;;;2.95;;
20945;SDS011;10632;51.276;7.116;2023-04-06T08:32:27;11.13;;;3.08;;
20945;SDS011;10632;51.276;7.116;2023-04-06T08:34:55;10.98;;;2.85;;
20945;SDS011;10632;51.276;7.116;2023-04-06T08:37:22;15.13;;;3.75;;
20945;SDS011;10632;51.276;7.116;2023-04-06T08:39:49;10.85;;;3.22;;
20945;SDS011;10632;51.276;7.116;2023-04-06T08:42:18;11.38;;;3.25;;
20945;SDS011;10632;51.276;7.116;2023-04-06T08:44:47;11.95;;;3.70;;
20945;SDS011;10632;51.276;7.116;2023-04-06T08:47:16;9.82;;;3.58;;
20945;SDS011;10632;51.276;7.116;2023-04-06T08:49:43;10.00;;;3.53;;
20945;SDS011;10632;51.276;7.116;2023-04-06T08:52:13;12.20;;;3.33;;
20945;SDS011;10632;51.276;7.116;2023-04-06T08:54:43;11.68;;;3.10;;
20945;SDS011;10632;51.276;7.116;2023-04-06T08:57:11;11.23;;;3.42;;
20945;SDS011;10632;51.276;7.116;2023-04-06T08:59:38;12.15;;;3.35;;
20945;SDS011;10632;51.276;7.116;2023-04-06T09:02:06;12.50;;;3.80;;
20945;SDS011;10632;51.276;7.116;2023-04-06T09:04:42;9.20;;;3.30;;
20945;SDS011;10632;51.276;7.116;2023-04-06T09:07:10;10.80;;;3.95;;
20945;SDS011;10632;51.276;7.116;2023-04-06T09:09:39;11.13;;;3.20;;
20945;SDS011;10632;51.276;7.116;2023-04-06T09:12:21;8.20;;;2.75;;
20945;SDS011;10632;51.276;7.116;2023-04-06T09:14:49;11.30;;;4.07;;
20945;SDS011;10632;51.276;7.116;2023-04-06T09:17:19;11.05;;;3.38;;
20945;SDS011;10632;51.276;7.116;2023-04-06T09:19:47;13.95;;;3.50;;
20945;SDS011;10632;51.276;7.116;2023-04-06T09:22:16;14.52;;;3.50;;
20945;SDS011;10632;51.276;7.116;2023-04-06T09:24:44;12.65;;;3.72;;
20945;SDS011;10632;51.276;7.116;2023-04-06T09:27:12;16.48;;;4.45;;
20945;SDS011;10632;51.276;7.116;2023-04-06T09:29:40;21.23;;;4.68;;
20945;SDS011;10632;51.276;7.116;2023-04-06T09:32:08;12.65;;;3.80;;
20945;SDS011;10632;51.276;7.116;2023-04-06T09:34:36;13.02;;;3.53;;
20945;SDS011;10632;51.276;7.116;2023-04-06T09:37:13;14.98;;;4.15;;
20945;SDS011;10632;51.276;7.116;2023-04-06T09:39:42;13.13;;;4.60;;
20945;SDS011;10632;51.276;7.116;2023-04-06T09:42:09;14.60;;;4.45;;
20945;SDS011;10632;51.276;7.116;2023-04-06T09:44:37;13.75;;;3.80;;
20945;SDS011;10632;51.276;7.116;2023-04-06T09:47:05;12.05;;;3.88;;
20945;SDS011;10632;51.276;7.116;2023-04-06T09:49:33;12.40;;;3.65;;
20945;SDS011;10632;51.276;7.116;2023-04-06T09:52:01;13.65;;;4.03;;
20945;SDS011;10632;51.276;7.116;2023-04-06T09:54:30;15.07;;;4.18;;
20945;SDS011;10632;51.276;7.116;2023-04-06T09:57:00;13.10;;;3.97;;
20945;SDS011;10632;51.276;7.116;2023-04-06T09:59:37;13.43;;;4.05;;
20945;SDS011;10632;51.276;7.116;2023-04-06T10:02:12;13.95;;;4.18;;
20945;SDS011;10632;51.276;7.116;2023-04-06T10:04:49;14.85;;;3.88;;
20945;SDS011;10632;51.276;7.116;2023-04-06T10:07:21;13.82;;;4.38;;
20945;SDS011;10632;51.276;7.116;2023-04-06T10:09:48;16.60;;;3.53;;
20945;SDS011;10632;51.276;7.116;2023-04-06T10:12:18;14.52;;;4.13;;
20945;SDS011;10632;51.276;7.116;2023-04-06T10:14:46;15.63;;;4.07;;
20945;SDS011;10632;51.276;7.116;2023-04-06T10:17:14;14.25;;;4.28;;
20945;SDS011;10632;51.276;7.116;2023-04-06T10:19:43;12.48;;;3.72;;
20945;SDS011;10632;51.276;7.116;2023-04-06T10:22:18;16.35;;;4.20;;
20945;SDS011;10632;51.276;7.116;2023-04-06T10:24:50;13.65;;;4.00;;
20945;SDS011;10632;51.276;7.116;2023-04-06T10:27:26;12.25;;;4.05;;
20945;SDS011;10632;51.276;7.116;2023-04-06T10:29:54;15.13;;;4.90;;
20945;SDS011;10632;51.276;7.116;2023-04-06T10:32:34;17.77;;;4.43;;
20945;SDS011;10632;51.276;7.116;2023-04-06T10:35:09;15.35;;;4.50;;
20945;SDS011;10632;51.276;7.116;2023-04-06T10:37:51;18.80;;;4.72;;
20945;SDS011;10632;51.276;7.116;2023-04-06T10:40:23;13.35;;;4.55;;
20945;SDS011;10632;51.276;7.116;2023-04-06T10:42:53;13.15;;;4.05;;
20945;SDS011;10632;51.276;7.116;2023-04-06T10:45:22;15.05;;;4.65;;
20945;SDS011;10632;51.276;7.116;2023-04-06T10:47:52;13.43;;;4.47;;
20945;SDS011;10632;51.276;7.116;2023-04-06T10:50:19;15.65;;;4.75;;
20945;SDS011;10632;51.276;7.116;2023-04-06T10:52:47;14.18;;;4.28;;
20945;SDS011;10632;51.276;7.116;2023-04-06T10:55:25;15.57;;;5.07;;
20945;SDS011;10632;51.276;7.116;2023-04-06T10:57:54;14.75;;;4.82;;
20945;SDS011;10632;51.276;7.116;2023-04-06T11:00:23;16.52;;;4.68;;
20945;SDS011;10632;51.276;7.116;2023-04-06T11:02:51;17.35;;;4.88;;
20945;SDS011;10632;51.276;7.116;2023-04-06T11:05:25;14.55;;;4.43;;
20945;SDS011;10632;51.276;7.116;2023-04-06T11:07:52;13.82;;;4.47;;
20945;SDS011;10632;51.276;7.116;2023-04-06T11:10:20;13.52;;;4.30;;
20945;SDS011;10632;51.276;7.116;2023-04-06T11:12:52;14.82;;;4.78;;
20945;SDS011;10632;51.276;7.116;2023-04-06T11:15:21;12.98;;;4.32;;
20945;SDS011;10632;51.276;7.116;2023-04-06T11:17:50;15.23;;;4.88;;
20945;SDS011;10632;51.276;7.116;2023-04-06T11:20:17;18.83;;;5.05;;
20945;SDS011;10632;51.276;7.116;2023-04-06T11:22:48;14.73;;;4.85;;
20945;SDS011;10632;51.276;7.116;2023-04-06T11:25:16;13.18;;;4.55;;
20945;SDS011;10632;51.276;7.116;2023-04-06T11:27:44;15.57;;;5.25;;
20945;SDS011;10632;51.276;7.116;2023-04-06T11:30:14;15.63;;;5.07;;
20945;SDS011;10632;51.276;7.116;2023-04-06T11:32:41;15.70;;;4.90;;
20945;SDS011;10632;51.276;7.116;2023-04-06T11:35:10;15.52;;;4.63;;
20945;SDS011;10632;51.276;7.116;2023-04-06T11:37:38;17.08;;;4.82;;
20945;SDS011;10632;51.276;7.116;2023-04-06T11:40:07;19.52;;;5.10;;
20945;SDS011;10632;51.276;7.116;2023-04-06T11:42:35;16.83;;;5.10;;
20945;SDS011;10632;51.276;7.116;2023-04-06T11:45:02;13.77;;;4.97;;
20945;SDS011;10632;51.276;7.116;2023-04-06T11:47:31;16.83;;;5.07;;
20945;SDS011;10632;51.276;7.116;2023-04-06T11:50:05;16.67;;;5.10;;
20945;SDS011;10632;51.276;7.116;2023-04-06T11:52:37;16.50;;;4.68;;
20945;SDS011;10632;51.276;7.116;2023-04-06T11:55:14;14.55;;;4.97;;
20945;SDS011;10632;51.276;7.116;2023-04-06T11:57:42;19.40;;;5.10;;
20945;SDS011;10632;51.276;7.116;2023-04-06T12:00:10;16.38;;;5.20;;
20945;SDS011;10632;51.276;7.116;2023-04-06T12:02:39;16.92;;;5.28;;
20945;SDS011;10632;51.276;7.116;2023-04-06T12:05:11;13.88;;;4.60;;
20945;SDS011;10632;51.276;7.116;2023-04-06T12:07:38;15.93;;;5.07;;
20945;SDS011;10632;51.276;7.116;2023-04-06T12:10:05;14.15;;;4.93;;
20945;SDS011;10632;51.276;7.116;2023-04-06T12:12:33;15.75;;;4.80;;
20945;SDS011;10632;51.276;7.116;2023-04-06T12:15:00;17.65;;;4.95;;
20945;SDS011;10632;51.276;7.116;2023-04-06T12:17:27;12.80;;;3.85;;
20945;SDS011;10632;51.276;7.116;2023-04-06T12:19:55;17.65;;;4.70;;
20945;SDS011;10632;51.276;7.116;2023-04-06T12:22:22;18.63;;;4.90;;
20945;SDS011;10632;51.276;7.116;2023-04-06T12:24:49;16.13;;;4.75;;
20945;SDS011;10632;51.276;7.116;2023-04-06T12:27:16;12.38;;;4.43;;
20945;SDS011;10632;51.276;7.116;2023-04-06T12:29:43;12.95;;;4.25;;
20945;SDS011;10632;51.276;7.116;2023-04-06T12:32:10;13.90;;;4.18;;
20945;SDS011;10632;51.276;7.116;2023-04-06T12:34:37;14.38;;;4.78;;
20945;SDS011;10632;51.276;7.116;2023-04-06T12:37:06;16.25;;;5.10;;
20945;SDS011;10632;51.276;7.116;2023-04-06T12:39:33;15.30;;;5.10;;
20945;SDS011;10632;51.276;7.116;2023-04-06T12:42:00;16.23;;;4.53;;
20945;SDS011;10632;51.276;7.116;2023-04-06T12:44:27;18.35;;;4.97;;
20945;SDS011;10632;51.276;7.116;2023-04-06T12:46:55;14.68;;;4.30;;
20945;SDS011;10632;51.276;7.116;2023-04-06T12:49:22;15.35;;;4.45;;
20945;SDS011;10632;51.276;7.116;2023-04-06T12:51:49;14.95;;;4.78;;
20945;SDS011;10632;51.276;7.116;2023-04-06T12:54:19;14.45;;;4.55;;
20945;SDS011;10632;51.276;7.116;2023-04-06T12:56:46;14.55;;;4.63;;
20945;SDS011;10632;51.276;7.116;2023-04-06T12:59:13;17.27;;;4.93;;
20945;SDS011;10632;51.276;7.116;2023-04-06T13:01:41;13.23;;;4.35;;
20945;SDS011;10632;51.276;7.116;2023-04-06T13:04:09;15.55;;;4.18;;
20945;SDS011;10632;51.276;7.116;2023-04-06T13:06:36;20.83;;;4.72;;
20945;SDS011;10632;51.276;7.116;2023-04-06T13:09:03;14.65;;;5.05;;
20945;SDS011;10632;51.276;7.116;2023-04-06T13:11:32;13.23;;;4.68;;
20945;SDS011;10632;51.276;7.116;2023-04-06T13:13:59;13.63;;;5.25;;
20945;SDS011;10632;51.276;7.116;2023-04-06T13:16:26;18.55;;;5.13;;
20945;SDS011;10632;51.276;7.116;2023-04-06T13:18:53;15.40;;;4.95;;
20945;SDS011;10632;51.276;7.116;2023-04-06T13:21:20;19.10;;;5.25;;
20945;SDS011;10632;51.276;7.116;2023-04-06T13:23:47;16.80;;;4.78;;
20945;SDS011;10632;51.276;7.116;2023-04-06T13:26:14;14.00;;;4.90;;
20945;SDS011;10632;51.276;7.116;2023-04-06T13:28:43;15.07;;;4.63;;
20945;SDS011;10632;51.276;7.116;2023-04-06T13:31:10;15.73;;;4.38;;
20945;SDS011;10632;51.276;7.116;2023-04-06T13:33:38;14.43;;;4.63;;
20945;SDS011;10632;51.276;7.116;2023-04-06T13:36:06;14.32;;;4.40;;
20945;SDS011;10632;51.276;7.116;2023-04-06T13:38:33;17.33;;;4.90;;
20945;SDS011;10632;51.276;7.116;2023-04-06T13:41:00;14.80;;;4.63;;
20945;SDS011;10632;51.276;7.116;2023-04-06T13:43:27;16.33;;;5.10;;
20945;SDS011;10632;51.276;7.116;2023-04-06T13:45:56;12.45;;;4.15;;
20945;SDS011;10632;51.276;7.116;2023-04-06T13:48:25;12.30;;;4.50;;
20945;SDS011;10632;51.276;7.116;2023-04-06T13:50:52;17.00;;;4.75;;
20945;SDS011;10632;51.276;7.116;2023-04-06T13:53:20;13.23;;;4.30;;
20945;SDS011;10632;51.276;7.116;2023-04-06T13:55:52;9.98;;;3.88;;
20945;SDS011;10632;51.276;7.116;2023-04-06T13:58:19;13.07;;;4.35;;
20945;SDS011;10632;51.276;7.116;2023-04-06T14:00:46;16.08;;;4.53;;
20945;SDS011;10632;51.276;7.116;2023-04-06T14:03:14;15.20;;;3.95;;
20945;SDS011;10632;51.276;7.116;2023-04-06T14:05:41;13.63;;;3.70;;
20945;SDS011;10632;51.276;7.116;2023-04-06T14:08:08;14.55;;;4.65;;
20945;SDS011;10632;51.276;7.116;2023-04-06T14:10:36;10.25;;;3.38;;
20945;SDS011;10632;51.276;7.116;2023-04-06T14:13:04;12.27;;;3.88;;
20945;SDS011;10632;51.276;7.116;2023-04-06T14:15:31;11.10;;;3.75;;
20945;SDS011;10632;51.276;7.116;2023-04-06T14:18:01;10.38;;;3.55;;
20945;SDS011;10632;51.276;7.116;2023-04-06T14:20:29;9.55;;;3.63;;
20945;SDS011;10632;51.276;7.116;2023-04-06T14:22:59;15.70;;;3.78;;
20945;SDS011;10632;51.276;7.116;2023-04-06T14:25:27;10.88;;;3.20;;
20945;SDS011;10632;51.276;7.116;2023-04-06T14:27:56;14.13;;;3.08;;
20945;SDS011;10632;51.276;7.116;2023-04-06T14:30:23;11.93;;;3.40;;
20945;SDS011;10632;51.276;7.116;2023-04-06T14:32:50;10.27;;;3.55;;
20945;SDS011;10632;51.276;7.116;2023-04-06T14:35:18;9.20;;;3.00;;
20945;SDS011;10632;51.276;7.116;2023-04-06T14:37:46;8.82;;;3.17;;
20945;SDS011;10632;51.276;7.116;2023-04-06T14:40:13;9.23;;;3.17;;
20945;SDS011;10632;51.276;7.116;2023-04-06T14:42:40;9.75;;;3.03;;
20945;SDS011;10632;51.276;7.116;2023-04-06T14:45:07;10.60;;;3.30;;
20945;SDS011;10632;51.276;7.116;2023-04-06T14:47:34;9.35;;;3.63;;
20945;SDS011;10632;51.276;7.116;2023-04-06T14:50:01;12.05;;;3.90;;